sensor_id;sensor_type;location;lat;lon;timestamp;pressure;altitude;pressure_sealevel;temperature;humidity
44765;BME280;30484;52.382;5.260;2023-02-27T00:01:12;103073.56;;;6.65;100.00
44765;BME280;30484;52.382;5.260;2023-02-27T00:03:42;103084.16;;;6.56;100.00
44765;BME280;30484;52.382;5.260;2023-02-27T00:06:12;103077.94;;;6.55;100.00
44765;BME280;30484;52.382;5.260;2023-02-27T00:08:41;103087.69;;;6.52;100.00
44765;BME280;30484;52.382;5.260;2023-02-27T00:11:09;103081.47;;;6.47;100.00
44765;BME280;30484;52.382;5.260;2023-02-27T00:13:38;103085.91;;;6.42;100.00
44765;BME280;30484;52.382;5.260;2023-02-27T00:16:07;103104.50;;;6.42;100.00
44765;BME280;30484;52.382;5.260;2023-02-27T00:18:39;103094.72;;;6.34;100.00
44765;BME280;30484;52.382;5.260;2023-02-27T00:21:09;103092.09;;;6.36;100.00
44765;BME280;30484;52.382;5.260;2023-02-27T00:23:37;103088.50;;;6.25;100.00
44765;BME280;30484;52.382;5.260;2023-02-27T00:26:05;103093.81;;;6.25;100.00
44765;BME280;30484;52.382;5.260;2023-02-27T00:28:34;103078.72;;;6.16;100.00
44765;BME280;30484;52.382;5.260;2023-02-27T00:31:03;103081.38;;;6.17;100.00
44765;BME280;30484;52.382;5.260;2023-02-27T00:33:32;103081.34;;;6.08;100.00
44765;BME280;30484;52.382;5.260;2023-02-27T00:36:01;103093.72;;;6.04;100.00
44765;BME280;30484;52.382;5.260;2023-02-27T00:38:32;103088.44;;;6.09;100.00
44765;BME280;30484;52.382;5.260;2023-02-27T00:41:00;103080.47;;;6.08;100.00
44765;BME280;30484;52.382;5.260;2023-02-27T00:43:29;103080.47;;;6.06;100.00
44765;BME280;30484;52.382;5.260;2023-02-27T00:45:58;103073.38;;;6.07;100.00
44765;BME280;30484;52.382;5.260;2023-02-27T00:48:27;103086.66;;;6.10;100.00
44765;BME280;30484;52.382;5.260;2023-02-27T00:50:55;103087.59;;;6.21;100.00
44765;BME280;30484;52.382;5.260;2023-02-27T00:53:23;103089.19;;;5.93;100.00
44765;BME280;30484;52.382;5.260;2023-02-27T00:55:53;103087.56;;;6.12;100.00
44765;BME280;30484;52.382;5.260;2023-02-27T00:58:23;103079.59;;;6.13;100.00
44765;BME280;30484;52.382;5.260;2023-02-27T01:00:51;103087.50;;;6.02;100.00
44765;BME280;30484;52.382;5.260;2023-02-27T01:03:20;103091.97;;;6.10;100.00
44765;BME280;30484;52.382;5.260;2023-02-27T01:05:49;103081.34;;;6.11;100.00
44765;BME280;30484;52.382;5.260;2023-02-27T01:08:18;103082.25;;;6.18;100.00
44765;BME280;30484;52.382;5.260;2023-02-27T01:10:47;103087.56;;;6.16;100.00
44765;BME280;30484;52.382;5.260;2023-02-27T01:13:17;103073.34;;;5.99;100.00
44765;BME280;30484;52.382;5.260;2023-02-27T01:15:45;103078.69;;;6.07;100.00
44765;BME280;30484;52.382;5.260;2023-02-27T01:18:14;103082.25;;;6.18;100.00
44765;BME280;30484;52.382;5.260;2023-02-27T01:20:43;103080.53;;;6.23;100.00
44765;BME280;30484;52.382;5.260;2023-02-27T01:23:11;103078.72;;;6.16;100.00
44765;BME280;30484;52.382;5.260;2023-02-27T01:25:40;103059.22;;;6.01;100.00
44765;BME280;30484;52.382;5.260;2023-02-27T01:28:09;103062.72;;;5.97;100.00
44765;BME280;30484;52.382;5.260;2023-02-27T01:30:40;103064.56;;;6.14;100.00
44765;BME280;30484;52.382;5.260;2023-02-27T01:33:10;103060.09;;;6.05;100.00
44765;BME280;30484;52.382;5.260;2023-02-27T01:35:39;103059.03;;;5.80;100.00
44765;BME280;30484;52.382;5.260;2023-02-27T01:38:07;103055.44;;;5.65;100.00
44765;BME280;30484;52.382;5.260;2023-02-27T01:40:36;103060.84;;;5.84;100.00
44765;BME280;30484;52.382;5.260;2023-02-27T01:43:05;103056.38;;;5.78;100.00
44765;BME280;30484;52.382;5.260;2023-02-27T01:45:36;103061.63;;;5.64;100.00
44765;BME280;30484;52.382;5.260;2023-02-27T01:48:15;103058.06;;;5.64;100.00
44765;BME280;30484;52.382;5.260;2023-02-27T01:50:49;103058.06;;;5.59;100.00
44765;BME280;30484;52.382;5.260;2023-02-27T01:53:19;103054.47;;;5.51;100.00
44765;BME280;30484;52.382;5.260;2023-02-27T01:55:52;103067.72;;;5.48;100.00
44765;BME280;30484;52.382;5.260;2023-02-27T01:58:21;103057.94;;;5.39;100.00
44765;BME280;30484;52.382;5.260;2023-02-27T02:00:50;103068.53;;;5.36;100.00
44765;BME280;30484;52.382;5.260;2023-02-27T02:03:23;103066.72;;;5.30;100.00
44765;BME280;30484;52.382;5.260;2023-02-27T02:05:54;103072.03;;;5.32;100.00
44765;BME280;30484;52.382;5.260;2023-02-27T02:08:24;103064.91;;;5.25;100.00
44765;BME280;30484;52.382;5.260;2023-02-27T02:10:54;103072.84;;;5.23;100.00
44765;BME280;30484;52.382;5.260;2023-02-27T02:13:23;103075.44;;;5.18;100.00
44765;BME280;30484;52.382;5.260;2023-02-27T02:16:03;103069.25;;;5.18;100.00
44765;BME280;30484;52.382;5.260;2023-02-27T02:18:43;103067.44;;;5.14;100.00
44765;BME280;30484;52.382;5.260;2023-02-27T02:21:30;103075.38;;;5.12;100.00
44765;BME280;30484;52.382;5.260;2023-02-27T02:24:39;103075.38;;;5.12;100.00
44765;BME280;30484;52.382;5.260;2023-02-27T02:27:22;103075.38;;;5.11;100.00
44765;BME280;30484;52.382;5.260;2023-02-27T02:36:59;103070.78;;;4.90;100.00
44765;BME280;30484;52.382;5.260;2023-02-27T02:40:03;103070.72;;;4.85;100.00
44765;BME280;30484;52.382;5.260;2023-02-27T02:42:35;103083.03;;;4.80;100.00
44765;BME280;30484;52.382;5.260;2023-02-27T02:45:12;103072.34;;;4.69;100.00
44765;BME280;30484;52.382;5.260;2023-02-27T02:47:51;103071.50;;;4.73;100.00
44765;BME280;30484;52.382;5.260;2023-02-27T02:50:25;103078.34;;;4.54;100.00
44765;BME280;30484;52.382;5.260;2023-02-27T02:52:59;103076.66;;;4.58;100.00
44765;BME280;30484;52.382;5.260;2023-02-27T02:55:31;103076.56;;;4.53;100.00
44765;BME280;30484;52.382;5.260;2023-02-27T02:58:02;103068.41;;;4.31;100.00
44765;BME280;30484;52.382;5.260;2023-02-27T03:00:36;103070.19;;;4.34;100.00
44765;BME280;30484;52.382;5.260;2023-02-27T03:03:09;103072.66;;;4.19;100.00
44765;BME280;30484;52.382;5.260;2023-02-27T03:05:41;103081.47;;;4.18;100.00
44765;BME280;30484;52.382;5.260;2023-02-27T03:08:13;103073.41;;;4.08;100.00
44765;BME280;30484;52.382;5.260;2023-02-27T03:10:47;103076.94;;;4.09;100.00
44765;BME280;30484;52.382;5.260;2023-02-27T03:13:18;103072.44;;;4.03;100.00
44765;BME280;30484;52.382;5.260;2023-02-27T03:15:50;103075.91;;;3.97;100.00
44765;BME280;30484;52.382;5.260;2023-02-27T03:18:23;103075.78;;;3.87;100.00
44765;BME280;30484;52.382;5.260;2023-02-27T03:20:54;103077.50;;;3.85;100.00
44765;BME280;30484;52.382;5.260;2023-02-27T03:23:26;103074.72;;;3.74;100.00
44765;BME280;30484;52.382;5.260;2023-02-27T03:25:56;103076.44;;;3.72;100.00
44765;BME280;30484;52.382;5.260;2023-02-27T03:28:27;103067.56;;;3.65;100.00
44765;BME280;30484;52.382;5.260;2023-02-27T03:30:57;103063.97;;;3.63;100.00
44765;BME280;30484;52.382;5.260;2023-02-27T03:33:29;103070.09;;;3.60;100.00
44765;BME280;30484;52.382;5.260;2023-02-27T03:36:03;103067.44;;;3.59;100.00
44765;BME280;30484;52.382;5.260;2023-02-27T03:38:37;103063.88;;;3.55;100.00
44765;BME280;30484;52.382;5.260;2023-02-27T03:41:11;103073.53;;;3.53;100.00
44765;BME280;30484;52.382;5.260;2023-02-27T03:43:45;103064.72;;;3.53;100.00
44765;BME280;30484;52.382;5.260;2023-02-27T03:46:18;103070.84;;;3.50;100.00
44765;BME280;30484;52.382;5.260;2023-02-27T03:48:48;103075.25;;;3.50;100.00
44765;BME280;30484;52.382;5.260;2023-02-27T03:51:17;103074.06;;;3.31;100.00
44765;BME280;30484;52.382;5.260;2023-02-27T03:53:48;103069.81;;;3.40;100.00
44765;BME280;30484;52.382;5.260;2023-02-27T03:56:21;103067.84;;;3.27;100.00
44765;BME280;30484;52.382;5.260;2023-02-27T03:58:51;103075.84;;;3.32;100.00
44765;BME280;30484;52.382;5.260;2023-02-27T04:01:19;103073.22;;;3.33;100.00
44765;BME280;30484;52.382;5.260;2023-02-27T04:03:50;103077.59;;;3.30;100.00
44765;BME280;30484;52.382;5.260;2023-02-27T04:06:19;103083.69;;;3.25;100.00
44765;BME280;30484;52.382;5.260;2023-02-27T04:09:07;103079.16;;;3.18;100.00
44765;BME280;30484;52.382;5.260;2023-02-27T04:11:49;103080.72;;;3.07;100.00
44765;BME280;30484;52.382;5.260;2023-02-27T04:14:32;103088.66;;;3.07;100.00
44765;BME280;30484;52.382;5.260;2023-02-27T04:17:16;103090.34;;;3.05;100.00
44765;BME280;30484;52.382;5.260;2023-02-27T04:22:49;103098.47;;;3.14;100.00
44765;BME280;30484;52.382;5.260;2023-02-27T04:28:17;103098.59;;;3.23;100.00
44765;BME280;30484;52.382;5.260;2023-02-27T04:30:56;103103.75;;;3.14;100.00
44765;BME280;30484;52.382;5.260;2023-02-27T04:33:32;103106.41;;;3.16;100.00
44765;BME280;30484;52.382;5.260;2023-02-27T04:36:07;103106.69;;;3.33;100.00
44765;BME280;30484;52.382;5.260;2023-02-27T04:38:41;103103.16;;;3.32;100.00
44765;BME280;30484;52.382;5.260;2023-02-27T04:41:13;103110.94;;;3.24;100.00
44765;BME280;30484;52.382;5.260;2023-02-27T04:43:45;103124.31;;;3.32;100.00
44765;BME280;30484;52.382;5.260;2023-02-27T04:46:16;103120.72;;;3.30;100.00
44765;BME280;30484;52.382;5.260;2023-02-27T04:48:48;103112.03;;;3.37;100.00
44765;BME280;30484;52.382;5.260;2023-02-27T04:51:20;103108.53;;;3.37;100.00
44765;BME280;30484;52.382;5.260;2023-02-27T04:53:55;103111.34;;;3.49;100.00
44765;BME280;30484;52.382;5.260;2023-02-27T04:56:27;103113.97;;;3.49;100.00
44765;BME280;30484;52.382;5.260;2023-02-27T04:59:00;103120.13;;;3.45;100.00
44765;BME280;30484;52.382;5.260;2023-02-27T05:01:33;103121.88;;;3.48;100.00
44765;BME280;30484;52.382;5.260;2023-02-27T05:04:02;103128.06;;;3.47;100.00
44765;BME280;30484;52.382;5.260;2023-02-27T05:06:38;103114.81;;;3.43;100.00
44765;BME280;30484;52.382;5.260;2023-02-27T05:09:12;103128.06;;;3.47;100.00
44765;BME280;30484;52.382;5.260;2023-02-27T05:11:52;103125.41;;;3.45;100.00
44765;BME280;30484;52.382;5.260;2023-02-27T05:14:25;103122.59;;;3.37;100.00
44765;BME280;30484;52.382;5.260;2023-02-27T05:17:04;103126.00;;;3.28;100.00
44765;BME280;30484;52.382;5.260;2023-02-27T05:19:38;103125.03;;;3.25;100.00
44765;BME280;30484;52.382;5.260;2023-02-27T05:22:17;103136.34;;;3.16;100.00
44765;BME280;30484;52.382;5.260;2023-02-27T05:24:54;103123.09;;;3.13;100.00
44765;BME280;30484;52.382;5.260;2023-02-27T05:27:34;103125.63;;;3.07;100.00
44765;BME280;30484;52.382;5.260;2023-02-27T05:30:14;103132.53;;;3.00;100.00
44765;BME280;30484;52.382;5.260;2023-02-27T05:32:48;103127.25;;;3.00;100.00
44765;BME280;30484;52.382;5.260;2023-02-27T05:35:19;103123.47;;;2.86;100.00
44765;BME280;30484;52.382;5.260;2023-02-27T05:37:58;103133.22;;;2.88;100.00
44765;BME280;30484;52.382;5.260;2023-02-27T05:40:31;103127.69;;;2.76;100.00
44765;BME280;30484;52.382;5.260;2023-02-27T05:43:02;103135.59;;;2.74;100.00
44765;BME280;30484;52.382;5.260;2023-02-27T05:45:34;103132.91;;;2.71;100.00
44765;BME280;30484;52.382;5.260;2023-02-27T05:48:06;103141.75;;;2.75;100.00
44765;BME280;30484;52.382;5.260;2023-02-27T05:50:36;103141.75;;;2.75;100.00
44765;BME280;30484;52.382;5.260;2023-02-27T05:53:07;103147.75;;;2.66;100.00
44765;BME280;30484;52.382;5.260;2023-02-27T05:55:37;103152.22;;;2.70;100.00
44765;BME280;30484;52.382;5.260;2023-02-27T05:58:34;103155.91;;;2.79;100.00
44765;BME280;30484;52.382;5.260;2023-02-27T06:02:02;103151.63;;;2.84;100.00
44765;BME280;30484;52.382;5.260;2023-02-27T06:04:30;103158.41;;;2.71;100.00
44765;BME280;30484;52.382;5.260;2023-02-27T06:07:21;103161.41;;;2.89;100.00
44765;BME280;30484;52.382;5.260;2023-02-27T06:10:14;103153.41;;;2.86;100.00
44765;BME280;30484;52.382;5.260;2023-02-27T06:12:49;103157.84;;;2.89;100.00
44765;BME280;30484;52.382;5.260;2023-02-27T06:15:34;103166.78;;;2.94;100.00
44765;BME280;30484;52.382;5.260;2023-02-27T06:18:05;103165.16;;;3.01;100.00
44765;BME280;30484;52.382;5.260;2023-02-27T06:20:34;103167.06;;;3.09;100.00
44765;BME280;30484;52.382;5.260;2023-02-27T06:23:05;103177.66;;;3.11;100.00
44765;BME280;30484;52.382;5.260;2023-02-27T06:25:33;103176.94;;;3.21;100.00
44765;BME280;30484;52.382;5.260;2023-02-27T06:28:02;103178.81;;;3.27;100.00
44765;BME280;30484;52.382;5.260;2023-02-27T06:30:30;103181.47;;;3.28;100.00
44765;BME280;30484;52.382;5.260;2023-02-27T06:32:58;103179.69;;;3.27;100.00
44765;BME280;30484;52.382;5.260;2023-02-27T06:35:31;103172.69;;;3.30;100.00
44765;BME280;30484;52.382;5.260;2023-02-27T06:38:00;103192.28;;;3.41;100.00
44765;BME280;30484;52.382;5.260;2023-02-27T06:40:28;103186.94;;;3.38;100.00
44765;BME280;30484;52.382;5.260;2023-02-27T06:42:56;103192.41;;;3.49;100.00
44765;BME280;30484;52.382;5.260;2023-02-27T06:45:25;103180.13;;;3.51;100.00
44765;BME280;30484;52.382;5.260;2023-02-27T06:47:53;103181.88;;;3.52;100.00
44765;BME280;30484;52.382;5.260;2023-02-27T06:50:21;103188.13;;;3.57;100.00
44765;BME280;30484;52.382;5.260;2023-02-27T06:52:51;103181.97;;;3.56;100.00
44765;BME280;30484;52.382;5.260;2023-02-27T06:55:19;103181.19;;;3.62;100.00
44765;BME280;30484;52.382;5.260;2023-02-27T06:57:48;103178.56;;;3.63;100.00
44765;BME280;30484;52.382;5.260;2023-02-27T07:00:17;103185.63;;;3.66;100.00
44765;BME280;30484;52.382;5.260;2023-02-27T07:02:46;103193.56;;;3.66;100.00
44765;BME280;30484;52.382;5.260;2023-02-27T07:05:14;103188.41;;;3.72;100.00
44765;BME280;30484;52.382;5.260;2023-02-27T07:07:44;103198.13;;;3.75;100.00
44765;BME280;30484;52.382;5.260;2023-02-27T07:10:15;103201.69;;;3.78;100.00
44765;BME280;30484;52.382;5.260;2023-02-27T07:12:43;103200.81;;;3.78;100.00
44765;BME280;30484;52.382;5.260;2023-02-27T07:15:12;103204.38;;;3.80;100.00
44765;BME280;30484;52.382;5.260;2023-02-27T07:17:40;103207.06;;;3.83;100.00
44765;BME280;30484;52.382;5.260;2023-02-27T07:20:10;103207.16;;;3.89;100.00
44765;BME280;30484;52.382;5.260;2023-02-27T07:22:39;103206.28;;;3.90;100.00
44765;BME280;30484;52.382;5.260;2023-02-27T07:25:08;103210.81;;;3.97;100.00
44765;BME280;30484;52.382;5.260;2023-02-27T07:27:40;103216.28;;;4.08;100.00
44765;BME280;30484;52.382;5.260;2023-02-27T07:30:11;103219.09;;;4.19;100.00
44765;BME280;30484;52.382;5.260;2023-02-27T07:32:39;103218.31;;;4.26;100.00
44765;BME280;30484;52.382;5.260;2023-02-27T07:35:08;103220.16;;;4.34;100.00
44765;BME280;30484;52.382;5.260;2023-02-27T07:37:37;103221.19;;;4.42;100.00
44765;BME280;30484;52.382;5.260;2023-02-27T07:40:07;103223.25;;;4.66;100.00
44765;BME280;30484;52.382;5.260;2023-02-27T07:42:36;103221.66;;;4.79;100.00
44765;BME280;30484;52.382;5.260;2023-02-27T07:45:07;103229.53;;;4.77;100.00
44765;BME280;30484;52.382;5.260;2023-02-27T07:47:35;103219.97;;;4.87;100.00
44765;BME280;30484;52.382;5.260;2023-02-27T07:50:04;103231.47;;;4.89;100.00
44765;BME280;30484;52.382;5.260;2023-02-27T07:52:33;103227.47;;;5.28;100.00
44765;BME280;30484;52.382;5.260;2023-02-27T07:55:01;103235.59;;;5.44;100.00
44765;BME280;30484;52.382;5.260;2023-02-27T07:57:30;103232.06;;;5.45;100.00
44765;BME280;30484;52.382;5.260;2023-02-27T07:59:58;103230.47;;;5.62;100.00
44765;BME280;30484;52.382;5.260;2023-02-27T08:02:28;103235.06;;;5.83;100.00
44765;BME280;30484;52.382;5.260;2023-02-27T08:04:57;103234.19;;;5.86;100.00
44765;BME280;30484;52.382;5.260;2023-02-27T08:07:25;103240.63;;;6.14;100.00
44765;BME280;30484;52.382;5.260;2023-02-27T08:09:54;103236.03;;;5.96;100.00
44765;BME280;30484;52.382;5.260;2023-02-27T08:12:22;103253.13;;;6.32;100.00
44765;BME280;30484;52.382;5.260;2023-02-27T08:14:51;103246.13;;;6.48;100.00
44765;BME280;30484;52.382;5.260;2023-02-27T08:17:19;103247.91;;;6.45;100.00
44765;BME280;30484;52.382;5.260;2023-02-27T08:19:49;103249.88;;;6.97;100.00
44765;BME280;30484;52.382;5.260;2023-02-27T08:22:18;103249.94;;;7.07;100.00
44765;BME280;30484;52.382;5.260;2023-02-27T08:24:47;103242.88;;;7.13;100.00
44765;BME280;30484;52.382;5.260;2023-02-27T08:27:16;103243.75;;;7.05;100.00
44765;BME280;30484;52.382;5.260;2023-02-27T08:29:44;103250.91;;;7.34;100.00
44765;BME280;30484;52.382;5.260;2023-02-27T08:32:12;103242.97;;;7.70;100.00
44765;BME280;30484;52.382;5.260;2023-02-27T08:34:41;103242.06;;;7.78;100.00
44765;BME280;30484;52.382;5.260;2023-02-27T08:37:11;103251.81;;;7.72;100.00
44765;BME280;30484;52.382;5.260;2023-02-27T08:39:39;103258.03;;;7.77;100.00
44765;BME280;30484;52.382;5.260;2023-02-27T08:42:07;103255.38;;;8.00;100.00
44765;BME280;30484;52.382;5.260;2023-02-27T08:44:36;103262.44;;;8.27;100.00
44765;BME280;30484;52.382;5.260;2023-02-27T08:47:04;103253.59;;;7.96;100.00
44765;BME280;30484;52.382;5.260;2023-02-27T08:49:33;103265.03;;;8.74;100.00
44765;BME280;30484;52.382;5.260;2023-02-27T08:52:01;103263.22;;;8.74;100.00
44765;BME280;30484;52.382;5.260;2023-02-27T08:54:33;103263.25;;;8.63;100.00
44765;BME280;30484;52.382;5.260;2023-02-27T08:57:01;103271.19;;;8.82;100.00
44765;BME280;30484;52.382;5.260;2023-02-27T08:59:30;103277.38;;;8.96;100.00
44765;BME280;30484;52.382;5.260;2023-02-27T09:01:58;103278.34;;;8.75;100.00
44765;BME280;30484;52.382;5.260;2023-02-27T09:04:27;103276.47;;;8.94;100.00
44765;BME280;30484;52.382;5.260;2023-02-27T09:06:55;103271.03;;;9.22;100.00
44765;BME280;30484;52.382;5.260;2023-02-27T09:09:24;103279.00;;;9.27;100.00
44765;BME280;30484;52.382;5.260;2023-02-27T09:11:55;103273.72;;;9.21;100.00
44765;BME280;30484;52.382;5.260;2023-02-27T09:14:23;103270.06;;;9.36;100.00
44765;BME280;30484;52.382;5.260;2023-02-27T09:16:53;103279.88;;;9.32;100.00
44765;BME280;30484;52.382;5.260;2023-02-27T09:19:22;103281.59;;;9.36;100.00
44765;BME280;30484;52.382;5.260;2023-02-27T09:21:51;103281.41;;;9.65;100.00
44765;BME280;30484;52.382;5.260;2023-02-27T09:24:20;103285.91;;;9.59;100.00
44765;BME280;30484;52.382;5.260;2023-02-27T09:26:49;103291.41;;;9.36;100.00
44765;BME280;30484;52.382;5.260;2023-02-27T09:29:20;103287.50;;;9.84;100.00
44765;BME280;30484;52.382;5.260;2023-02-27T09:31:49;103277.50;;;10.08;100.00
44765;BME280;30484;52.382;5.260;2023-02-27T09:34:18;103280.06;;;10.21;100.00
44765;BME280;30484;52.382;5.260;2023-02-27T09:36:49;103286.19;;;10.32;100.00
44765;BME280;30484;52.382;5.260;2023-02-27T09:39:18;103279.56;;;10.70;100.00
44765;BME280;30484;52.382;5.260;2023-02-27T09:41:56;103269.06;;;10.56;100.00
44765;BME280;30484;52.382;5.260;2023-02-27T09:44:36;103279.19;;;11.01;100.00
44765;BME280;30484;52.382;5.260;2023-02-27T09:47:20;103269.63;;;10.81;100.00
44765;BME280;30484;52.382;5.260;2023-02-27T09:49:57;103281.13;;;10.90;100.00
44765;BME280;30484;52.382;5.260;2023-02-27T09:52:27;103274.22;;;10.73;100.00
44765;BME280;30484;52.382;5.260;2023-02-27T09:54:56;103294.25;;;11.10;100.00
44765;BME280;30484;52.382;5.260;2023-02-27T09:57:36;103284.63;;;10.95;100.00
44765;BME280;30484;52.382;5.260;2023-02-27T10:00:15;103291.94;;;11.46;100.00
44765;BME280;30484;52.382;5.260;2023-02-27T10:02:51;103283.59;;;11.05;100.00
44765;BME280;30484;52.382;5.260;2023-02-27T10:05:29;103289.59;;;11.83;100.00
44765;BME280;30484;52.382;5.260;2023-02-27T10:08:05;103289.97;;;11.58;100.00
44765;BME280;30484;52.382;5.260;2023-02-27T10:10:39;103293.41;;;11.67;100.00
44765;BME280;30484;52.382;5.260;2023-02-27T10:16:04;103296.75;;;11.81;100.00
44765;BME280;30484;52.382;5.260;2023-02-27T10:18:34;103287.84;;;12.34;100.00
44765;BME280;30484;52.382;5.260;2023-02-27T10:21:09;103280.03;;;12.23;100.00
44765;BME280;30484;52.382;5.260;2023-02-27T10:23:41;103289.41;;;12.47;100.00
44765;BME280;30484;52.382;5.260;2023-02-27T10:26:17;103283.72;;;13.06;100.00
44765;BME280;30484;52.382;5.260;2023-02-27T10:28:46;103285.22;;;13.21;100.00
44765;BME280;30484;52.382;5.260;2023-02-27T10:31:19;103277.06;;;13.24;97.78
44765;BME280;30484;52.382;5.260;2023-02-27T10:33:49;103292.56;;;13.11;95.95
44765;BME280;30484;52.382;5.260;2023-02-27T10:36:18;103288.09;;;12.68;92.09
44765;BME280;30484;52.382;5.260;2023-02-27T10:39:00;103288.69;;;12.84;95.56
44765;BME280;30484;52.382;5.260;2023-02-27T10:41:33;103288.84;;;12.28;82.25
44765;BME280;30484;52.382;5.260;2023-02-27T10:44:02;103281.03;;;12.64;90.96
44765;BME280;30484;52.382;5.260;2023-02-27T10:46:34;103276.03;;;12.89;82.50
44765;BME280;30484;52.382;5.260;2023-02-27T10:49:10;103275.78;;;13.02;80.68
44765;BME280;30484;52.382;5.260;2023-02-27T10:51:41;103261.75;;;13.28;80.99
44765;BME280;30484;52.382;5.260;2023-02-27T10:54:14;103269.34;;;12.67;77.43
44765;BME280;30484;52.382;5.260;2023-02-27T10:56:44;103267.59;;;13.08;80.46
44765;BME280;30484;52.382;5.260;2023-02-27T10:59:19;103265.19;;;13.36;75.72
44765;BME280;30484;52.382;5.260;2023-02-27T11:01:52;103271.47;;;12.49;73.06
44765;BME280;30484;52.382;5.260;2023-02-27T11:04:25;103261.47;;;13.03;83.00
44765;BME280;30484;52.382;5.260;2023-02-27T11:06:56;103268.31;;;12.74;80.06
44765;BME280;30484;52.382;5.260;2023-02-27T11:09:26;103257.59;;;12.72;76.89
44765;BME280;30484;52.382;5.260;2023-02-27T11:11:55;103257.28;;;12.88;83.21
44765;BME280;30484;52.382;5.260;2023-02-27T11:14:46;103261.56;;;12.97;78.75
44765;BME280;30484;52.382;5.260;2023-02-27T11:17:22;103257.94;;;12.10;76.49
44765;BME280;30484;52.382;5.260;2023-02-27T11:19:54;103261.31;;;12.21;76.98
44765;BME280;30484;52.382;5.260;2023-02-27T11:22:27;103253.13;;;12.73;79.80
44765;BME280;30484;52.382;5.260;2023-02-27T11:25:16;103247.25;;;12.54;78.39
44765;BME280;30484;52.382;5.260;2023-02-27T11:27:50;103243.75;;;13.35;83.20
44765;BME280;30484;52.382;5.260;2023-02-27T11:30:22;103245.28;;;13.06;76.81
44765;BME280;30484;52.382;5.260;2023-02-27T11:32:55;103234.19;;;12.37;78.14
44765;BME280;30484;52.382;5.260;2023-02-27T11:35:28;103231.69;;;13.13;78.93
44765;BME280;30484;52.382;5.260;2023-02-27T11:37:59;103233.53;;;14.53;83.58
44765;BME280;30484;52.382;5.260;2023-02-27T11:40:34;103238.66;;;13.61;70.91
44765;BME280;30484;52.382;5.260;2023-02-27T11:43:06;103230.56;;;14.30;73.02
44765;BME280;30484;52.382;5.260;2023-02-27T11:45:42;103229.16;;;15.10;69.79
44765;BME280;30484;52.382;5.260;2023-02-27T11:48:39;103226.63;;;15.33;68.02
44765;BME280;30484;52.382;5.260;2023-02-27T11:51:23;103200.47;;;15.09;64.12
44765;BME280;30484;52.382;5.260;2023-02-27T11:54:11;103222.94;;;14.79;79.30
44765;BME280;30484;52.382;5.260;2023-02-27T11:56:43;103217.69;;;15.03;81.96
44765;BME280;30484;52.382;5.260;2023-02-27T11:59:21;103215.66;;;15.40;91.45
44765;BME280;30484;52.382;5.260;2023-02-27T12:01:53;103209.88;;;14.95;86.41
44765;BME280;30484;52.382;5.260;2023-02-27T12:04:26;103216.75;;;15.61;85.85
44765;BME280;30484;52.382;5.260;2023-02-27T12:07:00;103213.78;;;14.85;90.92
44765;BME280;30484;52.382;5.260;2023-02-27T12:09:37;103211.06;;;14.22;90.35
44765;BME280;30484;52.382;5.260;2023-02-27T12:12:13;103213.09;;;14.14;96.26
44765;BME280;30484;52.382;5.260;2023-02-27T12:14:47;103209.13;;;13.94;95.02
44765;BME280;30484;52.382;5.260;2023-02-27T12:17:21;103204.00;;;13.85;99.49
44765;BME280;30484;52.382;5.260;2023-02-27T12:19:59;103212.97;;;14.19;98.75
44765;BME280;30484;52.382;5.260;2023-02-27T12:22:29;103214.19;;;14.07;99.65
44765;BME280;30484;52.382;5.260;2023-02-27T12:25:02;103208.72;;;13.77;96.04
44765;BME280;30484;52.382;5.260;2023-02-27T12:27:37;103213.59;;;13.22;100.00
44765;BME280;30484;52.382;5.260;2023-02-27T12:30:14;103218.59;;;13.39;97.23
44765;BME280;30484;52.382;5.260;2023-02-27T12:32:45;103207.72;;;12.64;100.00
44765;BME280;30484;52.382;5.260;2023-02-27T12:35:22;103207.44;;;12.34;100.00
44765;BME280;30484;52.382;5.260;2023-02-27T12:37:51;103216.13;;;12.89;100.00
44765;BME280;30484;52.382;5.260;2023-02-27T12:40:20;103215.25;;;12.88;100.00
44765;BME280;30484;52.382;5.260;2023-02-27T12:43:13;103209.16;;;12.38;100.00
44765;BME280;30484;52.382;5.260;2023-02-27T12:46:01;103205.63;;;12.36;100.00
44765;BME280;30484;52.382;5.260;2023-02-27T12:48:45;103206.94;;;12.58;100.00
44765;BME280;30484;52.382;5.260;2023-02-27T12:51:27;103210.22;;;12.29;100.00
44765;BME280;30484;52.382;5.260;2023-02-27T12:54:09;103208.56;;;12.67;100.00
44765;BME280;30484;52.382;5.260;2023-02-27T12:56:46;103198.72;;;12.22;100.00
44765;BME280;30484;52.382;5.260;2023-02-27T12:59:25;103197.66;;;12.33;100.00
44765;BME280;30484;52.382;5.260;2023-02-27T13:02:04;103196.09;;;12.19;100.00
44765;BME280;30484;52.382;5.260;2023-02-27T13:04:43;103202.00;;;11.90;100.00
44765;BME280;30484;52.382;5.260;2023-02-27T13:07:20;103208.22;;;11.90;100.00
44765;BME280;30484;52.382;5.260;2023-02-27T13:09:51;103207.38;;;11.87;100.00
44765;BME280;30484;52.382;5.260;2023-02-27T13:12:24;103194.06;;;12.32;100.00
44765;BME280;30484;52.382;5.260;2023-02-27T13:14:58;103186.31;;;12.62;100.00
44765;BME280;30484;52.382;5.260;2023-02-27T13:17:32;103189.91;;;13.02;100.00
44765;BME280;30484;52.382;5.260;2023-02-27T13:20:04;103184.28;;;12.30;100.00
44765;BME280;30484;52.382;5.260;2023-02-27T13:22:44;103171.53;;;12.83;100.00
44765;BME280;30484;52.382;5.260;2023-02-27T13:25:17;103188.72;;;13.13;100.00
44765;BME280;30484;52.382;5.260;2023-02-27T13:27:46;103188.91;;;13.06;100.00
44765;BME280;30484;52.382;5.260;2023-02-27T13:30:20;103188.31;;;13.30;100.00
44765;BME280;30484;52.382;5.260;2023-02-27T13:32:54;103182.03;;;12.53;100.00